Time;durP1;ratioP1;P1;durP2;ratioP2;P2;SDS_P1;SDS_P2;PMS_P1;PMS_P2;Temp;Humidity;BMP_temperature;BMP_pressure;BME280_temperature;BME280_humidity;BME280_pressure;Samples;Min_cycle;Max_cycle;Signal;HPM_P1;HPM_P2
2023/06/22 00:00:48;;;;;;;20.42;15.70;;;;;;;;;;4949781;28;20078;-71
2023/06/22 00:03:14;;;;;;;21.25;17.10;;;;;;;;;;4951666;28;20051;-72
2023/06/22 00:05:40;;;;;;;22.55;15.95;;;;;;;;;;4987671;28;20083;-72
2023/06/22 00:08:06;;;;;;;19.02;15.60;;;;;;;;;;4948823;28;20129;-71
2023/06/22 00:10:32;;;;;;;21.25;16.20;;;;;;;;;;4948544;28;20094;-72
2023/06/22 00:12:58;;;;;;;18.48;15.15;;;;;;;;;;4954305;28;20043;-72
2023/06/22 00:15:24;;;;;;;19.25;15.07;;;;;;;;;;5002609;28;20051;-71
2023/06/22 00:17:50;;;;;;;22.20;17.65;;;;;;;;;;4948787;28;20483;-72
2023/06/22 00:20:17;;;;;;;20.35;16.40;;;;;;;;;;4952633;28;20126;-72
2023/06/22 00:22:44;;;;;;;22.20;16.95;;;;;;;;;;4972273;28;20058;-72
2023/06/22 00:25:10;;;;;;;22.88;17.67;;;;;;;;;;4981736;28;20078;-72
2023/06/22 00:27:37;;;;;;;23.40;17.65;;;;;;;;;;4962361;28;20039;-74
2023/06/22 00:30:03;;;;;;;23.13;16.90;;;;;;;;;;4946044;28;20039;-73
2023/06/22 00:32:29;;;;;;;23.02;16.77;;;;;;;;;;4962115;28;20051;-73
2023/06/22 00:34:55;;;;;;;21.60;17.55;;;;;;;;;;4984225;28;20130;-74
2023/06/22 00:37:25;;;;;;;24.10;17.75;;;;;;;;;;4959001;28;20105;-72
2023/06/22 00:39:51;;;;;;;21.27;17.00;;;;;;;;;;5021859;28;20067;-72
2023/06/22 00:42:18;;;;;;;22.05;17.75;;;;;;;;;;5061900;28;20051;-72
2023/06/22 00:44:44;;;;;;;20.88;16.73;;;;;;;;;;5016511;28;20073;-72
2023/06/22 00:47:12;;;;;;;22.50;17.42;;;;;;;;;;4965227;28;20494;-72
2023/06/22 00:49:38;;;;;;;19.90;16.83;;;;;;;;;;4957933;28;20061;-72
2023/06/22 00:52:08;;;;;;;23.98;17.88;;;;;;;;;;5023525;28;20057;-72
2023/06/22 00:54:35;;;;;;;21.17;16.88;;;;;;;;;;4944942;28;20441;-71
2023/06/22 00:57:02;;;;;;;23.80;17.15;;;;;;;;;;4965181;28;20043;-72
2023/06/22 00:59:28;;;;;;;23.60;17.88;;;;;;;;;;5040043;28;20049;-72
2023/06/22 01:01:54;;;;;;;21.50;17.77;;;;;;;;;;4957347;28;20101;-72
2023/06/22 01:04:20;;;;;;;24.27;19.13;;;;;;;;;;5019450;28;20054;-72
2023/06/22 01:06:57;;;;;;;27.20;19.52;;;;;;;;;;5031034;28;20051;-72
2023/06/22 01:09:27;;;;;;;26.15;19.48;;;;;;;;;;4956642;28;20402;-71
2023/06/22 01:11:55;;;;;;;24.08;19.33;;;;;;;;;;4961236;28;20044;-71
2023/06/22 01:14:24;;;;;;;28.08;20.73;;;;;;;;;;4956380;28;20483;-72
2023/06/22 01:16:52;;;;;;;25.27;21.33;;;;;;;;;;5030113;28;20266;-72
2023/06/22 01:19:21;;;;;;;27.88;22.95;;;;;;;;;;4947921;28;20135;-72
2023/06/22 01:21:47;;;;;;;28.95;21.83;;;;;;;;;;4961635;28;20100;-72
2023/06/22 01:24:14;;;;;;;29.98;22.05;;;;;;;;;;4957492;28;20073;-72
2023/06/22 01:26:40;;;;;;;31.88;22.70;;;;;;;;;;4962532;28;20046;-71
2023/06/22 01:29:07;;;;;;;29.50;22.10;;;;;;;;;;4960247;28;20047;-71
2023/06/22 01:31:35;;;;;;;34.20;24.02;;;;;;;;;;4959489;28;20577;-72
2023/06/22 01:34:02;;;;;;;31.40;22.98;;;;;;;;;;4965947;28;20096;-71
2023/06/22 01:36:30;;;;;;;33.83;24.65;;;;;;;;;;4949738;28;20043;-72
2023/06/22 01:38:57;;;;;;;31.10;23.02;;;;;;;;;;4961833;28;20208;-72
2023/06/22 01:41:25;;;;;;;28.85;22.40;;;;;;;;;;5023905;28;20078;-72
2023/06/22 01:43:52;;;;;;;32.13;24.20;;;;;;;;;;4967722;28;20043;-72
2023/06/22 01:46:22;;;;;;;32.45;23.95;;;;;;;;;;5028941;28;20058;-72
2023/06/22 01:48:48;;;;;;;32.58;24.27;;;;;;;;;;4958099;28;20403;-72
2023/06/22 01:51:15;;;;;;;31.83;23.63;;;;;;;;;;5014534;28;20058;-71
2023/06/22 01:53:41;;;;;;;32.70;25.40;;;;;;;;;;4958237;28;20053;-72
2023/06/22 01:56:07;;;;;;;30.70;23.80;;;;;;;;;;5028177;28;20050;-72
2023/06/22 01:58:34;;;;;;;33.08;25.77;;;;;;;;;;5016622;28;20121;-72
2023/06/22 02:01:10;;;;;;;31.40;24.90;;;;;;;;;;4957360;28;20082;-72
2023/06/22 02:03:39;;;;;;;30.90;24.50;;;;;;;;;;4950127;28;20450;-72
2023/06/22 02:06:07;;;;;;;28.92;23.83;;;;;;;;;;4956144;28;20049;-72
2023/06/22 02:08:37;;;;;;;28.85;23.58;;;;;;;;;;5014808;28;20051;-72
2023/06/22 02:11:04;;;;;;;31.73;24.90;;;;;;;;;;4954377;28;20558;-72
2023/06/22 02:13:31;;;;;;;31.38;24.63;;;;;;;;;;4951653;28;20133;-72
2023/06/22 02:15:57;;;;;;;35.17;24.50;;;;;;;;;;4952210;28;20035;-72
2023/06/22 02:18:23;;;;;;;29.25;24.50;;;;;;;;;;5012385;28;20112;-72
2023/06/22 02:20:49;;;;;;;33.95;25.80;;;;;;;;;;4950657;28;20085;-72
2023/06/22 02:23:15;;;;;;;40.47;29.48;;;;;;;;;;4956902;28;20415;-72
2023/06/22 02:25:44;;;;;;;37.88;27.25;;;;;;;;;;5019499;28;20046;-72
2023/06/22 02:28:10;;;;;;;37.88;27.33;;;;;;;;;;4942813;28;20046;-72
2023/06/22 02:30:36;;;;;;;37.67;28.48;;;;;;;;;;4952144;28;20047;-72
2023/06/22 02:33:02;;;;;;;35.65;26.35;;;;;;;;;;4951111;28;20051;-72
2023/06/22 02:35:31;;;;;;;37.65;25.92;;;;;;;;;;5038685;28;20046;-71
2023/06/22 02:38:00;;;;;;;41.50;27.55;;;;;;;;;;5053960;28;20185;-72
2023/06/22 02:40:27;;;;;;;41.67;27.70;;;;;;;;;;5025934;28;20070;-72
2023/06/22 02:42:53;;;;;;;34.17;25.58;;;;;;;;;;4952278;28;20054;-72
2023/06/22 02:45:19;;;;;;;35.15;26.70;;;;;;;;;;4950288;28;20499;-72
2023/06/22 02:47:45;;;;;;;39.50;27.35;;;;;;;;;;5016806;28;20062;-72
2023/06/22 02:50:11;;;;;;;31.48;25.63;;;;;;;;;;5007130;28;20053;-72
2023/06/22 02:52:39;;;;;;;31.50;25.98;;;;;;;;;;4955202;28;20141;-72
2023/06/22 02:55:05;;;;;;;35.63;27.17;;;;;;;;;;4952685;28;20043;-72
2023/06/22 02:57:31;;;;;;;40.55;26.80;;;;;;;;;;4962513;28;20049;-72
2023/06/22 02:59:57;;;;;;;32.10;25.77;;;;;;;;;;5024077;28;20076;-72
2023/06/22 03:02:23;;;;;;;33.03;26.08;;;;;;;;;;4947774;28;20047;-72
2023/06/22 03:04:49;;;;;;;36.10;25.98;;;;;;;;;;4949472;28;20044;-71
2023/06/22 03:07:17;;;;;;;34.05;26.00;;;;;;;;;;5023025;28;20062;-72
2023/06/22 03:09:43;;;;;;;34.08;27.30;;;;;;;;;;4962902;28;20100;-72
2023/06/22 03:12:09;;;;;;;33.13;27.02;;;;;;;;;;4962655;28;20448;-71
2023/06/22 03:14:36;;;;;;;35.53;28.25;;;;;;;;;;5028305;28;20055;-72
2023/06/22 03:17:03;;;;;;;32.92;27.75;;;;;;;;;;5023591;28;20046;-72
2023/06/22 03:19:31;;;;;;;37.17;30.02;;;;;;;;;;4952846;28;20051;-71
2023/06/22 03:21:57;;;;;;;37.67;29.63;;;;;;;;;;5030807;28;20426;-72
2023/06/22 03:24:23;;;;;;;37.17;29.88;;;;;;;;;;5024278;28;20077;-72
2023/06/22 03:26:49;;;;;;;41.72;31.80;;;;;;;;;;4962440;28;20051;-72
2023/06/22 03:29:15;;;;;;;39.50;31.02;;;;;;;;;;4969298;28;20580;-72
2023/06/22 03:31:42;;;;;;;39.28;29.92;;;;;;;;;;5022762;28;20437;-72
2023/06/22 03:34:08;;;;;;;42.83;33.53;;;;;;;;;;4959982;28;20051;-72
2023/06/22 03:36:34;;;;;;;43.42;31.38;;;;;;;;;;5024333;28;20056;-72
2023/06/22 03:39:00;;;;;;;40.65;31.25;;;;;;;;;;4963154;28;20529;-71
2023/06/22 03:41:26;;;;;;;37.90;30.33;;;;;;;;;;4955120;28;20075;-72
2023/06/22 03:43:52;;;;;;;40.13;31.55;;;;;;;;;;4957299;28;20044;-72
2023/06/22 03:46:19;;;;;;;38.75;31.73;;;;;;;;;;4967959;28;20056;-72
2023/06/22 03:48:45;;;;;;;39.47;30.70;;;;;;;;;;5033772;28;20116;-72
2023/06/22 03:51:11;;;;;;;38.10;30.88;;;;;;;;;;5024505;28;20050;-72
2023/06/22 03:53:37;;;;;;;40.15;30.67;;;;;;;;;;4950514;28;20077;-72
2023/06/22 03:56:04;;;;;;;36.90;30.25;;;;;;;;;;4961873;28;20043;-72
2023/06/22 03:58:32;;;;;;;35.33;29.42;;;;;;;;;;5016070;28;20491;-72
2023/06/22 04:00:59;;;;;;;34.88;28.45;;;;;;;;;;5014609;28;20047;-72
2023/06/22 04:03:26;;;;;;;37.47;29.52;;;;;;;;;;4953765;28;21010;-72
2023/06/22 04:05:52;;;;;;;35.30;28.35;;;;;;;;;;5023188;28;20559;-71
2023/06/22 04:08:18;;;;;;;34.85;29.20;;;;;;;;;;4949374;28;20527;-72
2023/06/22 04:10:44;;;;;;;34.40;28.20;;;;;;;;;;4954637;28;20043;-72
2023/06/22 04:13:11;;;;;;;31.25;25.67;;;;;;;;;;4952022;28;20051;-72
2023/06/22 04:15:37;;;;;;;33.17;27.98;;;;;;;;;;4950938;28;20039;-72
2023/06/22 04:18:03;;;;;;;31.20;25.73;;;;;;;;;;5022493;28;20133;-72
2023/06/22 04:20:29;;;;;;;30.08;24.90;;;;;;;;;;5025516;28;20048;-71
2023/06/22 04:22:55;;;;;;;32.83;25.42;;;;;;;;;;4959895;28;20054;-72
2023/06/22 04:25:21;;;;;;;30.27;24.50;;;;;;;;;;5018376;28;20057;-72
2023/06/22 04:27:48;;;;;;;32.60;25.95;;;;;;;;;;5012805;28;20055;-72
2023/06/22 04:30:16;;;;;;;29.85;23.60;;;;;;;;;;4952401;28;20134;-71
2023/06/22 04:32:43;;;;;;;32.35;25.63;;;;;;;;;;4952692;28;20054;-72
2023/06/22 04:35:09;;;;;;;34.28;26.20;;;;;;;;;;5032982;28;20529;-72
2023/06/22 04:37:35;;;;;;;36.80;27.15;;;;;;;;;;4968763;28;20051;-73
2023/06/22 04:40:03;;;;;;;37.53;26.98;;;;;;;;;;4943636;28;20044;-72
2023/06/22 04:42:30;;;;;;;33.35;26.42;;;;;;;;;;5030816;28;20055;-72
2023/06/22 04:44:56;;;;;;;34.17;25.58;;;;;;;;;;4950238;28;20044;-71
2023/06/22 04:47:22;;;;;;;30.27;24.90;;;;;;;;;;4958877;28;20046;-71
2023/06/22 04:49:48;;;;;;;30.85;24.25;;;;;;;;;;5026605;28;20047;-72
2023/06/22 04:52:17;;;;;;;29.95;23.63;;;;;;;;;;4955815;28;20093;-72
2023/06/22 04:54:47;;;;;;;32.03;25.00;;;;;;;;;;5029149;28;20078;-72
2023/06/22 04:57:14;;;;;;;33.78;25.80;;;;;;;;;;4950421;28;20117;-72
2023/06/22 04:59:41;;;;;;;30.73;24.42;;;;;;;;;;4961952;28;20066;-72
2023/06/22 05:02:07;;;;;;;35.58;25.77;;;;;;;;;;4940965;28;20130;-72
2023/06/22 05:04:35;;;;;;;32.70;25.92;;;;;;;;;;5018353;28;20058;-71
2023/06/22 05:07:01;;;;;;;33.92;24.67;;;;;;;;;;4950441;28;20198;-72
2023/06/22 05:09:28;;;;;;;33.20;25.73;;;;;;;;;;5022800;28;20047;-72
2023/06/22 05:11:54;;;;;;;34.72;27.05;;;;;;;;;;4958042;28;20054;-72
2023/06/22 05:14:20;;;;;;;33.42;25.98;;;;;;;;;;4963088;28;20084;-72
2023/06/22 05:16:46;;;;;;;36.05;27.25;;;;;;;;;;4952089;28;20054;-73
2023/06/22 05:19:12;;;;;;;34.05;27.20;;;;;;;;;;4953848;28;20051;-72
2023/06/22 05:21:39;;;;;;;32.90;26.15;;;;;;;;;;4961542;28;20146;-71
2023/06/22 05:24:05;;;;;;;36.60;27.27;;;;;;;;;;4957289;28;20051;-71
2023/06/22 05:26:32;;;;;;;33.97;26.13;;;;;;;;;;5014478;28;20505;-71
2023/06/22 05:28:58;;;;;;;32.80;26.42;;;;;;;;;;5021261;28;20071;-71
2023/06/22 05:31:24;;;;;;;34.17;25.27;;;;;;;;;;5020533;28;20146;-72
2023/06/22 05:33:52;;;;;;;33.00;25.55;;;;;;;;;;4964224;28;20039;-72
2023/06/22 05:36:19;;;;;;;32.53;25.60;;;;;;;;;;5015518;28;20419;-72
2023/06/22 05:38:46;;;;;;;35.30;27.15;;;;;;;;;;4945498;28;20067;-71
2023/06/22 05:41:12;;;;;;;32.78;25.48;;;;;;;;;;4949199;28;20055;-72
2023/06/22 05:43:38;;;;;;;36.28;27.92;;;;;;;;;;4972886;28;20051;-71
2023/06/22 05:46:05;;;;;;;33.10;26.00;;;;;;;;;;4986517;28;20052;-73
2023/06/22 05:48:31;;;;;;;34.03;25.20;;;;;;;;;;4944101;28;20051;-72
2023/06/22 05:50:57;;;;;;;34.75;26.30;;;;;;;;;;4978125;28;20044;-72
2023/06/22 05:53:23;;;;;;;34.42;25.52;;;;;;;;;;4944012;28;20050;-71
2023/06/22 05:55:50;;;;;;;35.20;26.25;;;;;;;;;;4996278;28;20055;-72
2023/06/22 05:58:16;;;;;;;31.25;24.58;;;;;;;;;;4970257;28;20087;-72
2023/06/22 06:00:43;;;;;;;28.55;23.30;;;;;;;;;;4938991;28;20047;-72
2023/06/22 06:03:09;;;;;;;31.25;23.35;;;;;;;;;;4985383;28;20047;-72
2023/06/22 06:05:35;;;;;;;34.97;25.65;;;;;;;;;;5007257;28;20098;-71
2023/06/22 06:08:02;;;;;;;32.17;24.58;;;;;;;;;;4946466;28;20691;-72
2023/06/22 06:10:29;;;;;;;31.00;24.67;;;;;;;;;;4976882;28;20055;-72
2023/06/22 06:12:55;;;;;;;35.97;25.58;;;;;;;;;;4949611;28;20043;-72
2023/06/22 06:15:22;;;;;;;31.13;24.98;;;;;;;;;;4963777;28;20485;-72
2023/06/22 06:17:52;;;;;;;31.75;25.50;;;;;;;;;;4947766;28;20440;-72
2023/06/22 06:20:22;;;;;;;30.98;24.27;;;;;;;;;;4981757;28;20142;-72
2023/06/22 06:22:48;;;;;;;32.53;25.70;;;;;;;;;;4972115;28;20134;-72
2023/06/22 06:25:19;;;;;;;28.98;24.42;;;;;;;;;;4950532;28;20055;-72
2023/06/22 06:27:46;;;;;;;31.30;24.13;;;;;;;;;;4938421;28;20054;-72
2023/06/22 06:30:13;;;;;;;27.83;22.92;;;;;;;;;;4945760;28;20495;-72
2023/06/22 06:32:39;;;;;;;25.42;22.02;;;;;;;;;;5015822;28;20113;-72
2023/06/22 06:35:08;;;;;;;23.95;20.70;;;;;;;;;;4943209;28;20062;-71
2023/06/22 06:37:38;;;;;;;24.67;19.92;;;;;;;;;;4952845;28;20050;-71
2023/06/22 06:40:06;;;;;;;24.48;19.92;;;;;;;;;;5009659;28;20091;-71
2023/06/22 06:42:32;;;;;;;25.52;21.52;;;;;;;;;;5009988;28;20063;-72
2023/06/22 06:44:58;;;;;;;23.45;20.80;;;;;;;;;;4948149;28;20495;-71
2023/06/22 06:47:24;;;;;;;26.48;22.35;;;;;;;;;;4979571;28;20097;-72
2023/06/22 06:49:50;;;;;;;21.75;19.05;;;;;;;;;;4946145;28;20043;-72
2023/06/22 06:52:16;;;;;;;26.17;20.05;;;;;;;;;;4981763;28;20051;-72
2023/06/22 06:54:42;;;;;;;25.90;20.55;;;;;;;;;;4965634;28;20049;-72
2023/06/22 06:57:10;;;;;;;24.58;20.35;;;;;;;;;;4987265;28;20082;-72
2023/06/22 06:59:36;;;;;;;25.58;22.25;;;;;;;;;;4971603;28;20429;-72
2023/06/22 07:02:02;;;;;;;20.55;18.35;;;;;;;;;;5007793;28;20140;-71
2023/06/22 07:04:28;;;;;;;23.23;19.33;;;;;;;;;;4960111;28;20046;-71
2023/06/22 07:06:54;;;;;;;22.75;19.95;;;;;;;;;;4993265;28;20055;-72
2023/06/22 07:09:20;;;;;;;25.42;21.33;;;;;;;;;;4985998;28;20041;-72
2023/06/22 07:11:46;;;;;;;26.98;21.77;;;;;;;;;;4943915;28;20533;-72
2023/06/22 07:14:12;;;;;;;26.73;21.73;;;;;;;;;;4949071;28;20487;-72
2023/06/22 07:16:38;;;;;;;23.35;19.08;;;;;;;;;;4961595;28;20058;-72
2023/06/22 07:19:04;;;;;;;25.25;21.52;;;;;;;;;;4961742;28;20051;-72
2023/06/22 07:21:30;;;;;;;25.70;20.55;;;;;;;;;;4975573;28;20453;-72
2023/06/22 07:23:56;;;;;;;20.20;18.10;;;;;;;;;;4946730;28;20043;-72
2023/06/22 07:26:22;;;;;;;19.20;17.20;;;;;;;;;;4944065;28;20454;-72
2023/06/22 07:28:50;;;;;;;23.00;19.40;;;;;;;;;;4961869;28;20428;-72
2023/06/22 07:31:16;;;;;;;19.73;17.63;;;;;;;;;;4981948;28;20062;-72
2023/06/22 07:33:42;;;;;;;21.50;18.60;;;;;;;;;;4939471;28;20121;-72
2023/06/22 07:36:08;;;;;;;20.85;18.58;;;;;;;;;;4939961;28;20059;-72
2023/06/22 07:38:35;;;;;;;19.27;16.70;;;;;;;;;;4977946;28;20110;-72
2023/06/22 07:41:02;;;;;;;20.67;17.35;;;;;;;;;;4946021;28;20073;-72
2023/06/22 07:43:29;;;;;;;17.88;14.43;;;;;;;;;;4960308;28;20480;-72
2023/06/22 07:45:55;;;;;;;21.02;17.65;;;;;;;;;;4949160;28;20039;-72
2023/06/22 07:48:22;;;;;;;21.50;16.65;;;;;;;;;;4942503;28;20483;-72
2023/06/22 07:50:48;;;;;;;16.95;14.88;;;;;;;;;;4948518;28;20442;-72
2023/06/22 07:53:14;;;;;;;14.27;12.77;;;;;;;;;;4947129;28;20055;-72
2023/06/22 07:55:40;;;;;;;15.90;13.48;;;;;;;;;;4976658;28;20131;-72
2023/06/22 07:58:06;;;;;;;14.98;12.27;;;;;;;;;;4947480;28;20126;-72
2023/06/22 08:00:33;;;;;;;15.48;12.75;;;;;;;;;;4949335;28;20055;-72
2023/06/22 08:02:59;;;;;;;17.65;13.05;;;;;;;;;;4947247;28;20066;-72
2023/06/22 08:05:25;;;;;;;13.57;11.80;;;;;;;;;;4955104;28;20047;-72
2023/06/22 08:07:53;;;;;;;13.05;10.10;;;;;;;;;;4993542;28;20043;-72
2023/06/22 08:10:19;;;;;;;12.60;10.82;;;;;;;;;;4962987;28;20051;-72
2023/06/22 08:12:45;;;;;;;13.32;10.57;;;;;;;;;;4950531;28;20375;-72
2023/06/22 08:15:11;;;;;;;11.95;10.40;;;;;;;;;;4948317;28;20047;-72
2023/06/22 08:17:38;;;;;;;12.70;9.98;;;;;;;;;;4950567;28;20043;-72
2023/06/22 08:20:09;;;;;;;11.52;8.95;;;;;;;;;;4949623;28;20074;-73
2023/06/22 08:22:36;;;;;;;11.02;9.52;;;;;;;;;;4986882;28;20044;-72
2023/06/22 08:25:03;;;;;;;13.13;10.27;;;;;;;;;;4971086;28;20122;-72
2023/06/22 08:27:31;;;;;;;10.32;8.85;;;;;;;;;;4945743;28;20054;-72
2023/06/22 08:29:58;;;;;;;10.40;9.30;;;;;;;;;;4963384;28;20145;-72
2023/06/22 08:32:26;;;;;;;10.70;8.15;;;;;;;;;;4971926;28;20185;-72
2023/06/22 08:34:53;;;;;;;10.45;8.35;;;;;;;;;;4986594;28;20047;-72
2023/06/22 08:37:19;;;;;;;12.00;9.65;;;;;;;;;;4947451;28;20132;-72
2023/06/22 08:39:46;;;;;;;14.00;10.00;;;;;;;;;;4966703;28;20047;-73
2023/06/22 08:42:12;;;;;;;10.23;9.13;;;;;;;;;;4951464;28;20051;-75
2023/06/22 08:44:38;;;;;;;11.68;9.40;;;;;;;;;;4951205;28;20280;-73
2023/06/22 08:47:05;;;;;;;10.07;8.98;;;;;;;;;;4946670;28;20051;-73
2023/06/22 08:49:31;;;;;;;9.32;8.35;;;;;;;;;;5000266;28;20510;-73
2023/06/22 08:51:57;;;;;;;10.32;9.00;;;;;;;;;;4944905;28;20040;-73
2023/06/22 08:54:23;;;;;;;11.43;9.60;;;;;;;;;;4946205;28;20082;-75
2023/06/22 08:56:49;;;;;;;11.48;9.30;;;;;;;;;;4941678;28;20050;-73
2023/06/22 08:59:15;;;;;;;10.30;9.18;;;;;;;;;;4940017;28;20048;-73
2023/06/22 09:01:45;;;;;;;10.98;9.50;;;;;;;;;;4948413;28;20052;-73
2023/06/22 09:04:11;;;;;;;11.98;9.05;;;;;;;;;;4942715;28;20045;-73
2023/06/22 09:06:44;;;;;;;11.73;9.63;;;;;;;;;;4947353;28;20492;-74
2023/06/22 09:09:10;;;;;;;15.65;10.27;;;;;;;;;;4965252;28;20055;-74
2023/06/22 09:11:36;;;;;;;12.50;10.43;;;;;;;;;;4946810;28;20097;-74
2023/06/22 09:14:03;;;;;;;18.48;11.35;;;;;;;;;;4950137;28;20506;-75
2023/06/22 09:16:29;;;;;;;12.73;10.80;;;;;;;;;;4973853;28;20126;-72
2023/06/22 09:18:55;;;;;;;12.40;10.85;;;;;;;;;;4951074;28;20044;-73
2023/06/22 09:21:22;;;;;;;11.88;9.77;;;;;;;;;;4964327;28;20058;-73
2023/06/22 09:23:51;;;;;;;13.52;10.48;;;;;;;;;;4989047;28;20051;-74
2023/06/22 09:26:17;;;;;;;11.88;9.90;;;;;;;;;;4970587;28;20067;-72
2023/06/22 09:28:43;;;;;;;13.07;10.13;;;;;;;;;;5005133;28;20050;-74
2023/06/22 09:31:09;;;;;;;12.45;10.10;;;;;;;;;;4948060;28;20047;-75
2023/06/22 09:33:36;;;;;;;13.07;11.43;;;;;;;;;;4947914;28;20416;-73
2023/06/22 09:36:02;;;;;;;14.23;11.43;;;;;;;;;;4983828;28;20078;-74
2023/06/22 09:38:28;;;;;;;10.50;9.40;;;;;;;;;;4955693;28;20051;-73
2023/06/22 09:40:54;;;;;;;13.73;10.60;;;;;;;;;;4943757;28;20039;-74
2023/06/22 09:43:20;;;;;;;11.20;9.43;;;;;;;;;;4945399;28;20089;-74
2023/06/22 09:45:46;;;;;;;14.25;10.23;;;;;;;;;;4948356;28;20054;-72
2023/06/22 09:48:13;;;;;;;12.70;10.73;;;;;;;;;;4948612;28;20593;-72
2023/06/22 09:50:39;;;;;;;10.10;8.40;;;;;;;;;;4950617;28;20051;-71
2023/06/22 09:53:05;;;;;;;12.55;10.02;;;;;;;;;;4942744;28;20131;-72
2023/06/22 09:55:31;;;;;;;10.85;8.65;;;;;;;;;;4948266;28;20042;-72
2023/06/22 09:57:57;;;;;;;7.88;6.38;;;;;;;;;;4996531;28;20066;-72
2023/06/22 10:00:23;;;;;;;7.45;6.40;;;;;;;;;;4945420;28;20050;-72
2023/06/22 10:02:50;;;;;;;7.65;5.97;;;;;;;;;;4975284;28;20475;-71
2023/06/22 10:05:17;;;;;;;7.22;6.32;;;;;;;;;;4949913;28;20055;-72
2023/06/22 10:07:43;;;;;;;9.43;6.63;;;;;;;;;;4938708;28;20055;-72
2023/06/22 10:10:10;;;;;;;7.35;6.53;;;;;;;;;;4969139;28;20510;-71
2023/06/22 10:12:36;;;;;;;7.80;6.47;;;;;;;;;;4948297;28;20488;-72
2023/06/22 10:15:03;;;;;;;10.38;6.90;;;;;;;;;;4962866;28;20118;-72
2023/06/22 10:17:29;;;;;;;10.70;8.27;;;;;;;;;;4947194;28;20062;-71
2023/06/22 10:19:55;;;;;;;10.25;8.57;;;;;;;;;;4948999;28;20078;-72
2023/06/22 10:22:21;;;;;;;10.73;7.72;;;;;;;;;;4945312;28;20086;-71
2023/06/22 10:24:47;;;;;;;10.95;9.20;;;;;;;;;;4950238;28;20067;-71
2023/06/22 10:27:13;;;;;;;12.77;8.57;;;;;;;;;;4941891;28;20043;-72
2023/06/22 10:29:39;;;;;;;14.23;9.40;;;;;;;;;;4999574;28;20127;-71
2023/06/22 10:32:06;;;;;;;12.13;9.57;;;;;;;;;;4974717;28;20051;-71
2023/06/22 10:34:32;;;;;;;9.60;8.38;;;;;;;;;;5008607;28;20044;-71
2023/06/22 10:36:58;;;;;;;9.52;7.57;;;;;;;;;;4987387;28;20047;-71
2023/06/22 10:39:24;;;;;;;10.77;8.35;;;;;;;;;;4956575;28;20061;-71
2023/06/22 10:41:50;;;;;;;8.10;7.30;;;;;;;;;;4962930;28;20077;-73
2023/06/22 10:44:17;;;;;;;7.35;6.18;;;;;;;;;;4945836;28;20140;-72
2023/06/22 10:46:43;;;;;;;9.13;7.90;;;;;;;;;;4945636;28;20539;-73
2023/06/22 10:49:09;;;;;;;8.05;7.22;;;;;;;;;;5017295;28;20051;-73
2023/06/22 10:51:35;;;;;;;8.80;6.35;;;;;;;;;;5012642;28;20444;-72
2023/06/22 10:54:01;;;;;;;7.55;5.18;;;;;;;;;;4957706;28;20043;-72
2023/06/22 10:56:27;;;;;;;6.63;5.32;;;;;;;;;;4953903;28;20252;-73
2023/06/22 10:58:53;;;;;;;10.32;7.28;;;;;;;;;;5018206;28;20494;-71
2023/06/22 11:01:21;;;;;;;8.15;6.13;;;;;;;;;;4944623;28;20047;-71
2023/06/22 11:03:47;;;;;;;8.82;6.15;;;;;;;;;;4958708;28;20438;-71
2023/06/22 11:06:14;;;;;;;12.60;6.63;;;;;;;;;;4940665;28;20055;-74
2023/06/22 11:08:40;;;;;;;9.25;6.65;;;;;;;;;;4995425;28;20089;-71
2023/06/22 11:11:06;;;;;;;7.20;5.15;;;;;;;;;;4948454;28;20104;-72
2023/06/22 11:13:32;;;;;;;8.48;5.70;;;;;;;;;;4951803;28;20487;-72
2023/06/22 11:15:58;;;;;;;8.77;6.13;;;;;;;;;;5013601;28;20051;-71
2023/06/22 11:18:24;;;;;;;5.13;4.63;;;;;;;;;;5010178;28;20066;-72
2023/06/22 11:20:50;;;;;;;7.07;4.60;;;;;;;;;;5020681;28;20043;-72
2023/06/22 11:23:16;;;;;;;5.43;3.90;;;;;;;;;;4955645;28;20047;-72
2023/06/22 11:25:42;;;;;;;6.82;3.40;;;;;;;;;;5025457;28;20098;-71
2023/06/22 11:28:08;;;;;;;5.97;4.10;;;;;;;;;;4968146;28;20055;-72
2023/06/22 11:30:34;;;;;;;5.43;4.53;;;;;;;;;;4955427;28;20043;-72
2023/06/22 11:33:00;;;;;;;7.38;4.70;;;;;;;;;;4958341;28;20136;-73
2023/06/22 11:35:27;;;;;;;6.03;4.32;;;;;;;;;;5019327;28;20541;-73
2023/06/22 11:37:53;;;;;;;6.55;4.18;;;;;;;;;;5010326;28;20492;-72
2023/06/22 11:40:19;;;;;;;4.20;3.78;;;;;;;;;;4945775;28;20142;-73
2023/06/22 11:42:45;;;;;;;5.10;4.15;;;;;;;;;;4953814;28;20125;-73
2023/06/22 11:45:12;;;;;;;6.93;4.50;;;;;;;;;;4984388;28;20105;-73
2023/06/22 11:47:39;;;;;;;10.27;4.47;;;;;;;;;;4965201;28;20039;-74
2023/06/22 11:50:05;;;;;;;23.13;5.03;;;;;;;;;;4985040;28;20063;-73
2023/06/22 11:52:32;;;;;;;4.38;3.85;;;;;;;;;;4987499;28;20569;-73
2023/06/22 11:54:59;;;;;;;5.63;3.92;;;;;;;;;;4947221;28;20059;-73
2023/06/22 11:57:25;;;;;;;4.40;3.88;;;;;;;;;;4945575;28;20051;-73
2023/06/22 11:59:51;;;;;;;6.40;4.10;;;;;;;;;;4987853;28;20043;-72
2023/06/22 12:02:17;;;;;;;4.60;4.07;;;;;;;;;;4974474;28;20043;-73
2023/06/22 12:04:43;;;;;;;4.82;4.07;;;;;;;;;;4950466;28;20048;-73
2023/06/22 12:07:09;;;;;;;6.93;5.30;;;;;;;;;;4944507;28;20479;-73
2023/06/22 12:09:35;;;;;;;8.02;5.80;;;;;;;;;;4949708;28;20042;-73
2023/06/22 12:12:01;;;;;;;6.53;5.22;;;;;;;;;;4952110;28;20134;-73
2023/06/22 12:14:27;;;;;;;8.63;6.03;;;;;;;;;;4947814;28;20046;-72
2023/06/22 12:16:53;;;;;;;5.40;4.63;;;;;;;;;;4961812;28;20047;-73
2023/06/22 12:19:19;;;;;;;14.68;5.28;;;;;;;;;;4945224;28;20448;-73
2023/06/22 12:21:45;;;;;;;12.35;5.07;;;;;;;;;;4949864;28;20040;-74
2023/06/22 12:24:11;;;;;;;7.93;3.70;;;;;;;;;;4977872;28;20372;-74
2023/06/22 12:26:37;;;;;;;7.30;3.47;;;;;;;;;;4945277;28;20566;-73
2023/06/22 12:29:03;;;;;;;6.53;3.30;;;;;;;;;;4948929;28;20130;-73
2023/06/22 12:31:29;;;;;;;14.57;3.53;;;;;;;;;;4942837;28;20135;-73
2023/06/22 12:33:55;;;;;;;3.67;3.30;;;;;;;;;;4966403;28;20087;-74
2023/06/22 12:36:22;;;;;;;3.85;3.40;;;;;;;;;;4942070;28;20052;-72
2023/06/22 12:38:48;;;;;;;3.72;3.03;;;;;;;;;;4950242;28;20058;-73
2023/06/22 12:41:14;;;;;;;5.90;3.25;;;;;;;;;;4963829;28;20111;-73
2023/06/22 12:43:41;;;;;;;3.83;3.20;;;;;;;;;;4964120;28;20487;-73
2023/06/22 12:46:07;;;;;;;3.83;3.13;;;;;;;;;;4956168;28;20058;-73
2023/06/22 12:48:33;;;;;;;3.30;3.00;;;;;;;;;;4961965;28;20047;-73
2023/06/22 12:50:59;;;;;;;4.63;3.17;;;;;;;;;;4959132;28;20058;-73
2023/06/22 12:53:27;;;;;;;2.90;2.50;;;;;;;;;;5027854;28;20043;-73
2023/06/22 12:55:53;;;;;;;6.50;4.00;;;;;;;;;;4960699;28;20128;-73
2023/06/22 12:58:19;;;;;;;5.05;3.58;;;;;;;;;;5028131;28;20056;-73
2023/06/22 13:00:45;;;;;;;6.05;3.00;;;;;;;;;;4963673;28;20491;-73
2023/06/22 13:03:11;;;;;;;5.30;2.70;;;;;;;;;;5025900;28;20051;-73
2023/06/22 13:05:38;;;;;;;3.97;2.33;;;;;;;;;;4962865;28;20252;-73
2023/06/22 13:08:04;;;;;;;2.80;2.50;;;;;;;;;;4959340;28;20043;-72
2023/06/22 13:10:30;;;;;;;3.20;2.50;;;;;;;;;;5023041;28;20130;-73
2023/06/22 13:13:00;;;;;;;3.50;2.50;;;;;;;;;;4962955;28;20039;-73
2023/06/22 13:15:27;;;;;;;2.65;2.45;;;;;;;;;;5028807;28;21613;-72
2023/06/22 13:17:53;;;;;;;4.80;2.50;;;;;;;;;;4960711;28;20057;-73
2023/06/22 13:20:19;;;;;;;2.55;2.35;;;;;;;;;;4956084;28;20039;-72
2023/06/22 13:22:45;;;;;;;4.80;2.60;;;;;;;;;;4964358;28;20057;-73
2023/06/22 13:25:12;;;;;;;3.33;2.42;;;;;;;;;;4951368;28;20040;-73
2023/06/22 13:27:42;;;;;;;2.58;2.10;;;;;;;;;;4966715;28;20157;-73
2023/06/22 13:30:09;;;;;;;3.53;2.22;;;;;;;;;;5024768;28;20043;-72
2023/06/22 13:32:35;;;;;;;13.13;2.90;;;;;;;;;;5026479;28;20056;-72
2023/06/22 13:35:01;;;;;;;2.28;2.08;;;;;;;;;;5031204;28;20042;-72
2023/06/22 13:37:27;;;;;;;2.17;2.00;;;;;;;;;;4952561;28;20054;-73
2023/06/22 13:39:55;;;;;;;2.20;2.00;;;;;;;;;;4959775;28;20046;-73
2023/06/22 13:42:22;;;;;;;2.03;1.83;;;;;;;;;;4963848;28;20498;-73
2023/06/22 13:44:48;;;;;;;4.95;2.50;;;;;;;;;;4964363;28;20509;-73
2023/06/22 13:47:14;;;;;;;2.85;1.90;;;;;;;;;;5033361;28;20055;-74
2023/06/22 13:49:40;;;;;;;2.80;2.10;;;;;;;;;;5029193;28;20047;-74
2023/06/22 13:52:10;;;;;;;2.50;2.30;;;;;;;;;;4952624;28;20058;-74
2023/06/22 13:54:36;;;;;;;2.55;2.10;;;;;;;;;;5027807;28;20051;-74
2023/06/22 13:57:02;;;;;;;4.15;2.10;;;;;;;;;;4964501;28;20078;-73
2023/06/22 13:59:28;;;;;;;4.60;1.80;;;;;;;;;;4953496;28;20044;-74
2023/06/22 14:01:54;;;;;;;2.00;1.80;;;;;;;;;;4958787;28;20148;-74
2023/06/22 14:04:22;;;;;;;5.15;1.98;;;;;;;;;;5028329;28;20093;-73
2023/06/22 14:06:50;;;;;;;3.03;2.00;;;;;;;;;;5023005;28;20046;-73
2023/06/22 14:09:17;;;;;;;2.97;1.80;;;;;;;;;;4961227;28;20054;-73
2023/06/22 14:11:43;;;;;;;2.65;1.73;;;;;;;;;;5021308;28;20398;-74
2023/06/22 14:14:09;;;;;;;2.38;2.00;;;;;;;;;;4963964;28;20530;-74
2023/06/22 14:16:35;;;;;;;4.18;2.17;;;;;;;;;;4958427;28;20051;-74
2023/06/22 14:19:01;;;;;;;3.53;2.15;;;;;;;;;;5017727;28;20492;-74
2023/06/22 14:21:27;;;;;;;2.60;2.00;;;;;;;;;;5024459;28;20116;-74